Time;durP1;ratioP1;P1;durP2;ratioP2;P2;SDS_P1;SDS_P2;PMS_P1;PMS_P2;Temp;Humidity;BMP_temperature;BMP_pressure;BME280_temperature;BME280_humidity;BME280_pressure;Samples;Min_cycle;Max_cycle;Signal;HPM_P1;HPM_P2
2021/10/21 00:01:05;;;;;;;1.90;1.40;;;22.50;51.50;;;;;;4946110;28;20396;-69
2021/10/21 00:03:31;;;;;;;2.08;1.30;;;22.50;51.40;;;;;;4963253;28;20534;-68
2021/10/21 00:05:57;;;;;;;1.80;1.20;;;22.50;51.50;;;;;;4963566;28;21269;-69
2021/10/21 00:08:23;;;;;;;1.95;1.20;;;22.50;51.40;;;;;;4963354;28;20404;-69
2021/10/21 00:10:50;;;;;;;1.55;1.10;;;22.50;51.40;;;;;;4965830;28;20426;-69
2021/10/21 00:13:16;;;;;;;2.40;1.10;;;22.50;51.50;;;;;;4967274;28;20928;-68
2021/10/21 00:15:42;;;;;;;1.80;1.20;;;22.50;51.50;;;;;;4966836;28;20404;-68
2021/10/21 00:18:08;;;;;;;2.03;1.30;;;22.50;51.40;;;;;;4967348;28;20969;-68
2021/10/21 00:20:34;;;;;;;1.65;1.10;;;22.50;51.30;;;;;;4967235;28;20490;-68
2021/10/21 00:22:59;;;;;;;1.70;1.30;;;22.40;51.20;;;;;;4967409;28;20756;-68
2021/10/21 00:25:25;;;;;;;1.30;1.10;;;22.50;51.20;;;;;;4966822;28;20392;-68
2021/10/21 00:27:51;;;;;;;2.70;1.30;;;22.50;51.20;;;;;;4966942;28;20436;-68
2021/10/21 00:30:16;;;;;;;2.33;1.20;;;22.40;51.30;;;;;;4966427;28;20436;-68
2021/10/21 00:32:42;;;;;;;1.60;1.27;;;22.40;51.30;;;;;;4966669;28;20396;-68
2021/10/21 00:35:09;;;;;;;1.80;1.27;;;22.40;51.20;;;;;;4966788;28;20403;-69
2021/10/21 00:37:35;;;;;;;1.60;1.15;;;22.40;51.20;;;;;;4966444;28;20917;-70
2021/10/21 00:40:01;;;;;;;2.33;1.15;;;22.40;51.10;;;;;;4967030;28;20402;-68
2021/10/21 00:42:27;;;;;;;1.85;1.27;;;22.40;51.20;;;;;;4966763;28;20454;-69
2021/10/21 00:44:53;;;;;;;1.67;1.13;;;22.40;51.30;;;;;;4966781;28;20463;-68
2021/10/21 00:47:20;;;;;;;2.13;1.33;;;22.40;51.20;;;;;;4966728;28;20443;-69
2021/10/21 00:49:46;;;;;;;1.77;1.10;;;22.40;51.10;;;;;;4966415;28;20399;-68
2021/10/21 00:52:12;;;;;;;2.20;1.30;;;22.40;51.20;;;;;;4966697;28;20450;-68
2021/10/21 00:54:37;;;;;;;1.70;1.02;;;22.30;51.10;;;;;;4966412;28;20436;-69
2021/10/21 00:57:05;;;;;;;2.00;1.27;;;22.30;51.10;;;;;;4966705;28;20466;-68
2021/10/21 00:59:32;;;;;;;1.58;1.20;;;22.30;51.10;;;;;;4966142;28;20392;-68
2021/10/21 01:01:59;;;;;;;1.75;1.15;;;22.30;51.10;;;;;;4966413;28;20730;-68
2021/10/21 01:04:24;;;;;;;1.80;1.30;;;22.30;51.10;;;;;;4966617;28;20869;-68
2021/10/21 01:06:50;;;;;;;1.80;1.10;;;22.30;51.10;;;;;;4966382;28;20451;-68
2021/10/21 01:09:18;;;;;;;1.75;1.20;;;22.30;51.00;;;;;;4966560;28;20411;-68
2021/10/21 01:11:44;;;;;;;2.33;1.30;;;22.30;51.10;;;;;;4948402;28;20400;-68
2021/10/21 01:14:10;;;;;;;1.58;1.17;;;22.30;51.00;;;;;;4966038;28;20467;-68
2021/10/21 01:16:41;;;;;;;1.70;1.17;;;22.30;51.00;;;;;;4966261;28;20524;-68
2021/10/21 01:19:20;;;;;;;1.80;1.20;;;22.30;51.00;;;;;;4966110;28;20451;-68
2021/10/21 01:21:48;;;;;;;2.10;1.10;;;22.30;50.90;;;;;;4947826;28;20400;-68
2021/10/21 01:24:14;;;;;;;1.73;1.23;;;22.20;50.90;;;;;;4965668;28;20489;-68
2021/10/21 01:26:42;;;;;;;1.65;1.00;;;22.20;50.80;;;;;;4966068;28;20405;-68
2021/10/21 01:29:08;;;;;;;1.60;1.10;;;22.20;50.80;;;;;;4965994;28;20477;-68
2021/10/21 01:31:34;;;;;;;1.90;1.23;;;22.20;50.70;;;;;;4965894;28;20432;-68
2021/10/21 01:33:59;;;;;;;1.33;1.00;;;22.20;50.70;;;;;;4965817;28;20400;-68
2021/10/21 01:36:25;;;;;;;2.50;1.20;;;22.20;50.80;;;;;;4965763;28;20415;-68
2021/10/21 01:38:51;;;;;;;1.65;1.17;;;22.20;50.70;;;;;;4965799;28;20400;-69
2021/10/21 01:41:17;;;;;;;1.70;1.30;;;22.20;50.70;;;;;;4948580;28;20413;-68
2021/10/21 01:43:44;;;;;;;2.08;1.20;;;22.20;50.70;;;;;;4965191;28;20427;-68
2021/10/21 01:46:10;;;;;;;1.77;1.20;;;22.10;50.70;;;;;;4964693;28;20470;-68
2021/10/21 01:48:36;;;;;;;1.65;1.20;;;22.20;50.80;;;;;;4965311;28;20392;-68
2021/10/21 01:51:02;;;;;;;1.92;1.13;;;22.10;50.70;;;;;;4965509;28;20400;-68
2021/10/21 01:53:28;;;;;;;1.75;1.20;;;22.20;50.70;;;;;;4948340;28;20404;-69
2021/10/21 01:55:54;;;;;;;2.93;1.27;;;22.10;50.70;;;;;;4965284;28;20730;-68
2021/10/21 01:58:19;;;;;;;1.52;1.15;;;22.10;50.70;;;;;;4965345;28;20443;-68
2021/10/21 02:00:45;;;;;;;1.50;1.00;;;22.10;50.70;;;;;;4965349;28;20389;-68
2021/10/21 02:03:11;;;;;;;2.55;1.20;;;22.10;50.70;;;;;;4965546;28;20507;-68
2021/10/21 02:05:36;;;;;;;1.70;1.30;;;22.10;50.60;;;;;;4964823;28;20396;-68
2021/10/21 02:08:03;;;;;;;1.45;1.05;;;22.10;50.70;;;;;;4965323;28;20392;-69
2021/10/21 02:10:28;;;;;;;2.05;1.20;;;22.10;50.60;;;;;;4965206;28;20420;-68
2021/10/21 02:12:54;;;;;;;1.50;1.10;;;22.10;50.50;;;;;;4964970;28;20486;-69
2021/10/21 02:15:20;;;;;;;1.75;1.10;;;22.10;50.60;;;;;;4965356;28;20427;-68
2021/10/21 02:17:46;;;;;;;1.43;1.10;;;22.10;50.50;;;;;;4964590;28;20423;-68
2021/10/21 02:20:13;;;;;;;1.50;1.10;;;22.10;50.60;;;;;;4965313;28;20384;-68
2021/10/21 02:22:39;;;;;;;1.40;1.10;;;22.00;50.50;;;;;;4965269;28;20423;-68
2021/10/21 02:25:11;;;;;;;1.80;1.10;;;22.00;50.50;;;;;;4965047;28;20439;-69
2021/10/21 02:27:38;;;;;;;1.50;1.05;;;22.00;50.50;;;;;;4964679;28;20397;-68
2021/10/21 02:30:06;;;;;;;1.60;1.20;;;22.00;50.40;;;;;;4965050;28;20407;-68
2021/10/21 02:32:31;;;;;;;1.90;1.10;;;22.00;50.30;;;;;;4964248;28;20403;-69
2021/10/21 02:34:57;;;;;;;1.40;1.00;;;22.00;50.20;;;;;;4964825;28;20400;-68
2021/10/21 02:37:23;;;;;;;1.92;1.20;;;22.00;50.30;;;;;;4964762;28;20424;-68
2021/10/21 02:39:49;;;;;;;2.10;1.00;;;22.00;50.30;;;;;;4963970;28;20861;-69
2021/10/21 02:42:15;;;;;;;1.60;1.05;;;22.00;50.30;;;;;;4964741;28;20462;-70
2021/10/21 02:44:40;;;;;;;2.00;1.20;;;22.00;50.80;;;;;;4964521;28;20392;-68
2021/10/21 02:47:06;;;;;;;1.50;1.00;;;22.00;50.20;;;;;;4964633;28;20408;-69
2021/10/21 02:49:32;;;;;;;1.47;1.03;;;22.00;50.40;;;;;;4964573;28;20400;-68
2021/10/21 02:51:57;;;;;;;1.40;1.10;;;22.00;50.20;;;;;;4964250;28;20403;-68
2021/10/21 02:54:23;;;;;;;1.47;1.10;;;22.00;50.20;;;;;;4964595;28;20392;-68
2021/10/21 02:56:49;;;;;;;1.30;0.98;;;22.00;50.20;;;;;;4953011;28;20776;-68
2021/10/21 02:59:15;;;;;;;1.63;1.00;;;22.00;50.20;;;;;;4947280;28;20408;-68
2021/10/21 03:01:40;;;;;;;1.23;0.90;;;21.90;50.20;;;;;;4956272;28;20404;-69
2021/10/21 03:04:06;;;;;;;1.67;1.20;;;21.90;50.20;;;;;;4964493;28;20393;-67
2021/10/21 03:06:32;;;;;;;2.00;1.20;;;21.90;50.10;;;;;;4948828;28;20914;-69
2021/10/21 03:08:57;;;;;;;1.77;1.30;;;21.90;50.10;;;;;;4964330;28;20964;-68
2021/10/21 03:11:23;;;;;;;2.10;1.10;;;21.90;51.20;;;;;;4964067;28;20392;-68
2021/10/21 03:13:49;;;;;;;2.33;1.23;;;21.90;51.00;;;;;;4963941;28;20816;-68
2021/10/21 03:16:14;;;;;;;2.83;1.20;;;21.90;51.50;;;;;;4963187;28;20424;-68
2021/10/21 03:18:40;;;;;;;4.77;1.30;;;22.00;51.30;;;;;;4964035;28;20396;-68
2021/10/21 03:21:06;;;;;;;3.10;1.40;;;21.90;51.50;;;;;;4964161;28;20455;-68
2021/10/21 03:23:31;;;;;;;6.10;1.23;;;22.00;52.80;;;;;;4963848;28;20760;-69
2021/10/21 03:25:57;;;;;;;6.60;1.27;;;22.10;52.90;;;;;;4963375;28;20746;-69
2021/10/21 03:28:23;;;;;;;5.78;1.40;;;22.10;53.00;;;;;;4963165;28;20400;-69
2021/10/21 03:30:48;;;;;;;4.57;1.33;;;22.10;52.90;;;;;;4963575;28;20427;-68
2021/10/21 03:33:14;;;;;;;7.85;1.58;;;22.10;53.20;;;;;;4963342;28;20959;-69
2021/10/21 03:35:40;;;;;;;2.90;1.20;;;22.20;53.30;;;;;;4963262;28;20398;-68
2021/10/21 03:38:06;;;;;;;2.30;1.30;;;22.10;52.70;;;;;;4963354;28;20516;-69
2021/10/21 03:40:31;;;;;;;3.00;1.20;;;22.10;52.00;;;;;;4963625;28;20899;-69
2021/10/21 03:42:57;;;;;;;2.70;1.20;;;22.00;53.00;;;;;;4960679;28;20416;-68
2021/10/21 03:45:23;;;;;;;4.22;1.50;;;22.10;53.10;;;;;;4962863;28;20904;-69
2021/10/21 03:47:48;;;;;;;7.47;1.40;;;22.10;53.60;;;;;;4961874;28;20483;-68
2021/10/21 03:50:14;;;;;;;3.70;1.27;;;22.20;53.50;;;;;;4962873;28;20387;-68
2021/10/21 03:52:40;;;;;;;4.53;1.37;;;22.20;53.00;;;;;;4962829;28;20396;-69
2021/10/21 03:55:06;;;;;;;4.82;1.30;;;22.20;52.80;;;;;;4963014;28;20499;-68
2021/10/21 03:57:32;;;;;;;8.80;1.45;;;22.20;52.90;;;;;;4963739;28;20456;-68
2021/10/21 03:59:58;;;;;;;3.63;1.10;;;22.20;52.60;;;;;;4963137;28;20912;-69
2021/10/21 04:02:23;;;;;;;3.70;1.07;;;22.20;52.10;;;;;;4963673;28;20535;-70
2021/10/21 04:04:49;;;;;;;2.87;1.20;;;22.10;51.90;;;;;;4945730;28;20396;-69
2021/10/21 04:07:15;;;;;;;2.20;1.20;;;22.10;51.90;;;;;;4963709;28;20911;-70
2021/10/21 04:09:40;;;;;;;2.60;1.20;;;22.10;51.60;;;;;;4945607;28;20459;-69
2021/10/21 04:12:06;;;;;;;2.40;1.23;;;22.00;51.50;;;;;;4963120;28;21472;-69
2021/10/21 04:14:32;;;;;;;2.20;1.10;;;22.00;51.20;;;;;;4963621;28;20400;-68
2021/10/21 04:16:58;;;;;;;2.38;1.20;;;22.00;51.40;;;;;;4963277;28;20943;-69
2021/10/21 04:19:23;;;;;;;2.90;1.30;;;22.10;51.60;;;;;;4963517;28;20404;-69
2021/10/21 04:21:49;;;;;;;2.08;1.33;;;22.20;51.50;;;;;;4962257;28;20438;-69
2021/10/21 04:24:15;;;;;;;3.20;1.30;;;22.20;51.30;;;;;;4963419;28;20407;-68
2021/10/21 04:26:40;;;;;;;3.80;1.30;;;22.20;51.20;;;;;;4963154;28;20427;-69
2021/10/21 04:29:06;;;;;;;1.90;1.20;;;22.10;50.70;;;;;;4963277;28;20786;-68
2021/10/21 04:31:32;;;;;;;2.83;1.15;;;22.10;50.60;;;;;;4960560;28;21354;-69
2021/10/21 04:33:58;;;;;;;3.17;1.20;;;22.20;51.10;;;;;;4962690;28;20404;-68
2021/10/21 04:36:24;;;;;;;4.65;1.10;;;22.30;50.90;;;;;;4963212;28;20463;-69
2021/10/21 04:38:49;;;;;;;2.33;1.40;;;22.30;50.60;;;;;;4963356;28;20400;-69
2021/10/21 04:41:15;;;;;;;4.53;1.23;;;22.20;50.60;;;;;;4963401;28;20466;-69
2021/10/21 04:43:41;;;;;;;4.30;1.50;;;22.20;50.70;;;;;;4962921;28;20396;-69
2021/10/21 04:46:07;;;;;;;4.00;1.30;;;22.20;51.80;;;;;;4962883;28;20426;-70
2021/10/21 04:48:32;;;;;;;5.30;1.37;;;22.30;52.70;;;;;;4962941;28;20399;-69
2021/10/21 04:50:58;;;;;;;6.93;1.40;;;22.40;52.10;;;;;;4963384;28;20483;-68
2021/10/21 04:53:24;;;;;;;4.63;1.30;;;22.50;51.70;;;;;;4963856;28;20397;-68
2021/10/21 04:55:49;;;;;;;4.33;1.40;;;22.50;51.40;;;;;;4963244;28;20402;-68
2021/10/21 04:58:15;;;;;;;8.23;1.80;;;22.40;51.40;;;;;;4966306;28;20444;-68
2021/10/21 05:00:41;;;;;;;6.37;1.63;;;22.40;51.50;;;;;;4966377;28;20487;-68
2021/10/21 05:03:10;;;;;;;8.75;1.85;;;22.50;52.00;;;;;;4966374;28;20392;-69
2021/10/21 05:05:36;;;;;;;11.05;1.70;;;22.60;52.10;;;;;;4966364;28;20396;-68
2021/10/21 05:08:03;;;;;;;8.27;1.70;;;22.60;51.60;;;;;;4966094;28;20400;-67
2021/10/21 05:10:29;;;;;;;6.78;1.70;;;22.60;51.30;;;;;;4966742;28;20404;-68
2021/10/21 05:12:55;;;;;;;5.95;1.40;;;22.60;51.30;;;;;;4948703;28;20423;-69
2021/10/21 05:15:23;;;;;;;6.05;1.55;;;22.60;51.40;;;;;;4966298;28;20515;-69
2021/10/21 05:17:49;;;;;;;5.60;1.60;;;22.60;51.40;;;;;;4948228;28;20432;-69
2021/10/21 05:20:14;;;;;;;7.20;1.50;;;22.70;51.40;;;;;;4965857;28;20388;-68
2021/10/21 05:22:40;;;;;;;4.05;1.45;;;22.70;51.30;;;;;;4966197;28;20756;-68
2021/10/21 05:25:06;;;;;;;4.20;1.50;;;22.70;51.00;;;;;;4965879;28;20388;-68
2021/10/21 05:27:33;;;;;;;3.80;1.40;;;22.60;50.60;;;;;;4948617;28;20912;-68
2021/10/21 05:29:58;;;;;;;3.78;1.48;;;22.60;50.50;;;;;;4965894;28;20398;-68
2021/10/21 05:32:24;;;;;;;5.10;1.65;;;22.50;50.70;;;;;;4966184;28;20397;-68
2021/10/21 05:34:49;;;;;;;3.10;1.50;;;22.60;51.10;;;;;;4965910;28;20568;-68
2021/10/21 05:37:15;;;;;;;3.47;1.33;;;22.60;50.60;;;;;;4965861;28;20817;-69
2021/10/21 05:39:41;;;;;;;3.27;1.37;;;22.60;50.50;;;;;;4966090;28;20396;-68
2021/10/21 05:42:08;;;;;;;3.88;1.38;;;22.50;50.50;;;;;;4965413;28;20404;-68
2021/10/21 05:44:33;;;;;;;5.53;1.50;;;22.50;50.20;;;;;;4965468;28;20397;-69
2021/10/21 05:46:59;;;;;;;3.95;1.55;;;22.50;50.30;;;;;;4965544;28;20400;-68
2021/10/21 05:49:25;;;;;;;2.60;1.40;;;22.50;50.70;;;;;;4965838;28;20939;-69
2021/10/21 05:51:51;;;;;;;5.75;1.30;;;22.50;50.70;;;;;;4964662;28;20404;-68
2021/10/21 05:54:16;;;;;;;3.67;1.37;;;22.60;50.40;;;;;;4965590;28;20547;-68
2021/10/21 05:56:43;;;;;;;2.95;1.27;;;22.50;50.30;;;;;;4965632;28;20527;-68
2021/10/21 05:59:09;;;;;;;2.67;1.30;;;22.50;50.50;;;;;;4948254;28;20484;-69
2021/10/21 06:01:35;;;;;;;2.22;1.17;;;22.40;50.40;;;;;;4948146;28;20413;-69
2021/10/21 06:04:00;;;;;;;2.47;1.30;;;22.40;50.30;;;;;;4964721;28;20896;-68
2021/10/21 06:06:26;;;;;;;3.15;1.30;;;22.50;50.10;;;;;;4965544;28;20403;-68
2021/10/21 06:08:51;;;;;;;3.47;1.40;;;22.50;50.50;;;;;;4965243;28;20451;-68
2021/10/21 06:11:17;;;;;;;2.70;1.27;;;22.50;49.90;;;;;;4965706;28;20495;-69
2021/10/21 06:13:43;;;;;;;2.40;1.40;;;22.50;50.00;;;;;;4965217;28;20805;-68
2021/10/21 06:16:09;;;;;;;3.08;1.40;;;22.40;50.00;;;;;;4964867;28;20526;-69
2021/10/21 06:18:35;;;;;;;3.60;1.40;;;22.40;50.10;;;;;;4947573;28;20419;-69
2021/10/21 06:21:06;;;;;;;2.77;1.47;;;22.50;49.90;;;;;;4965090;28;21271;-69
2021/10/21 06:23:33;;;;;;;4.70;1.70;;;22.50;49.80;;;;;;4965139;28;20418;-68
2021/10/21 06:25:59;;;;;;;4.20;1.90;;;22.50;49.70;;;;;;4964672;28;20435;-68
2021/10/21 06:28:25;;;;;;;3.97;2.10;;;22.40;49.70;;;;;;4965172;28;20410;-68
2021/10/21 06:30:51;;;;;;;5.88;2.20;;;22.40;49.50;;;;;;4964998;28;20966;-69
2021/10/21 06:33:17;;;;;;;4.10;2.00;;;22.40;49.60;;;;;;4964689;28;20400;-68
2021/10/21 06:35:43;;;;;;;4.22;2.00;;;22.40;49.10;;;;;;4964732;28;20399;-69
2021/10/21 06:38:09;;;;;;;3.60;2.00;;;22.40;48.70;;;;;;4963604;28;20487;-68
2021/10/21 06:40:35;;;;;;;4.40;2.05;;;22.40;48.50;;;;;;4964057;28;20723;-68
2021/10/21 06:43:00;;;;;;;3.83;2.17;;;22.30;48.70;;;;;;4963852;28;20407;-69
2021/10/21 06:45:27;;;;;;;4.35;2.10;;;22.30;48.90;;;;;;4946811;28;20510;-68
2021/10/21 06:47:52;;;;;;;3.83;2.20;;;22.30;48.90;;;;;;4963704;28;20407;-68
2021/10/21 06:50:19;;;;;;;3.30;2.30;;;22.30;49.00;;;;;;4964249;28;20400;-68
2021/10/21 06:52:45;;;;;;;5.13;2.10;;;22.40;49.10;;;;;;4963867;28;21228;-68
2021/10/21 06:55:15;;;;;;;3.70;2.60;;;22.40;48.90;;;;;;4964133;28;20396;-68
2021/10/21 06:57:57;;;;;;;4.10;2.20;;;22.40;49.00;;;;;;4946707;28;20792;-68
2021/10/21 07:00:24;;;;;;;4.18;2.30;;;22.30;48.90;;;;;;4963609;28;20392;-69
2021/10/21 07:02:50;;;;;;;3.08;2.42;;;22.30;49.00;;;;;;4964444;28;20404;-68
2021/10/21 07:05:17;;;;;;;3.95;2.40;;;22.30;49.00;;;;;;4946855;28;21060;-68
2021/10/21 07:07:44;;;;;;;5.53;2.83;;;22.40;49.30;;;;;;4964496;28;20400;-68
2021/10/21 07:10:10;;;;;;;5.60;2.63;;;22.40;50.00;;;;;;4963924;28;20483;-68
2021/10/21 07:12:37;;;;;;;5.85;2.70;;;22.40;50.30;;;;;;4964218;28;20400;-68
2021/10/21 07:15:06;;;;;;;6.45;3.00;;;22.40;51.40;;;;;;4963965;28;20389;-69
2021/10/21 07:17:32;;;;;;;7.15;3.17;;;22.40;52.80;;;;;;4964237;28;20435;-69
2021/10/21 07:19:58;;;;;;;6.32;3.20;;;22.40;54.10;;;;;;4954197;28;20403;-68
2021/10/21 07:22:23;;;;;;;6.80;3.10;;;22.50;54.30;;;;;;4964445;28;20396;-68
2021/10/21 07:24:49;;;;;;;7.28;3.70;;;22.60;54.20;;;;;;4946562;28;20488;-68
2021/10/21 07:27:15;;;;;;;6.73;3.17;;;22.50;53.90;;;;;;4946765;28;20400;-68
2021/10/21 07:29:40;;;;;;;5.80;2.83;;;22.50;54.20;;;;;;4964159;28;20424;-69
2021/10/21 07:32:06;;;;;;;6.97;2.93;;;22.50;54.60;;;;;;4963645;28;20489;-68
2021/10/21 07:34:32;;;;;;;6.22;3.08;;;22.50;55.50;;;;;;4963901;28;20396;-68
2021/10/21 07:36:58;;;;;;;7.15;3.08;;;22.60;55.30;;;;;;4963616;28;21222;-68
2021/10/21 07:39:25;;;;;;;6.47;3.00;;;22.70;55.10;;;;;;4946342;28;20402;-69
2021/10/21 07:41:52;;;;;;;7.03;3.10;;;22.60;54.10;;;;;;4963103;28;20483;-68
2021/10/21 07:44:18;;;;;;;7.65;3.03;;;22.60;53.60;;;;;;4946052;28;20401;-68
2021/10/21 07:46:48;;;;;;;4.93;2.60;;;22.50;53.30;;;;;;4963200;28;21316;-69
2021/10/21 07:49:15;;;;;;;5.25;3.05;;;22.50;53.80;;;;;;4963650;28;20388;-68
2021/10/21 07:51:44;;;;;;;9.82;3.10;;;22.60;53.90;;;;;;4963565;28;20435;-68
2021/10/21 07:54:12;;;;;;;8.07;2.80;;;22.60;52.30;;;;;;4963128;28;20422;-69
2021/10/21 07:56:38;;;;;;;6.90;2.88;;;22.60;52.60;;;;;;4963576;28;20428;-69
2021/10/21 07:59:04;;;;;;;8.52;2.97;;;22.50;52.20;;;;;;4963832;28;20392;-68
2021/10/21 08:01:30;;;;;;;7.72;2.67;;;22.50;53.10;;;;;;4963192;28;20408;-69
2021/10/21 08:03:57;;;;;;;7.87;3.03;;;22.50;53.50;;;;;;4963196;28;20753;-67
2021/10/21 08:06:23;;;;;;;8.98;2.90;;;22.60;53.40;;;;;;4963270;28;20407;-68
2021/10/21 08:08:48;;;;;;;6.93;2.70;;;22.60;53.00;;;;;;4963657;28;20411;-67
2021/10/21 08:11:14;;;;;;;6.68;2.60;;;22.60;52.60;;;;;;4963317;28;20400;-68
2021/10/21 08:13:40;;;;;;;5.72;2.58;;;22.60;52.30;;;;;;4963400;28;20442;-68
2021/10/21 08:16:06;;;;;;;8.65;2.85;;;22.50;52.00;;;;;;4963159;28;20400;-69
2021/10/21 08:18:32;;;;;;;7.67;2.83;;;22.50;52.40;;;;;;4963402;28;20412;-68
2021/10/21 08:20:58;;;;;;;5.95;2.65;;;22.60;52.40;;;;;;4963579;28;20757;-67
2021/10/21 08:23:24;;;;;;;6.05;2.50;;;22.60;52.30;;;;;;4963342;28;20422;-67
2021/10/21 08:25:49;;;;;;;5.85;2.97;;;22.60;52.00;;;;;;4963417;28;20387;-67
2021/10/21 08:28:15;;;;;;;5.82;3.50;;;22.60;51.60;;;;;;4963248;28;20403;-67
2021/10/21 08:30:43;;;;;;;6.40;3.93;;;22.50;51.50;;;;;;4953211;28;20802;-69
2021/10/21 08:33:11;;;;;;;5.40;3.00;;;22.50;51.60;;;;;;4966938;28;20472;-68
2021/10/21 08:35:37;;;;;;;5.03;2.92;;;22.50;52.00;;;;;;4966704;28;20396;-67
2021/10/21 08:38:03;;;;;;;5.23;2.80;;;22.60;51.70;;;;;;4966207;28;20424;-67
2021/10/21 08:40:30;;;;;;;7.22;3.45;;;22.60;51.40;;;;;;4967028;28;20392;-67
2021/10/21 08:42:56;;;;;;;7.22;3.90;;;22.60;51.50;;;;;;4949003;28;20388;-67
2021/10/21 08:45:22;;;;;;;6.32;3.35;;;22.50;51.30;;;;;;4941611;28;20428;-67
2021/10/21 08:47:50;;;;;;;6.40;3.30;;;22.50;51.50;;;;;;4966654;28;20407;-67
2021/10/21 08:50:17;;;;;;;5.72;3.10;;;22.50;51.80;;;;;;4966225;28;20396;-67
2021/10/21 08:52:45;;;;;;;5.78;3.00;;;22.60;51.90;;;;;;4966492;28;20403;-67
2021/10/21 08:55:11;;;;;;;5.55;2.97;;;22.60;51.90;;;;;;4966744;28;20388;-67
2021/10/21 08:57:38;;;;;;;8.65;2.90;;;22.60;51.40;;;;;;4966528;28;20897;-67
2021/10/21 09:00:06;;;;;;;5.13;2.70;;;22.50;51.40;;;;;;4948765;28;20406;-67
2021/10/21 09:03:05;;;;;;;5.38;2.90;;;22.40;51.40;;;;;;4949116;28;20411;-67
2021/10/21 09:05:37;;;;;;;5.95;2.83;;;22.50;52.30;;;;;;4965330;28;20848;-68
2021/10/21 09:08:10;;;;;;;3.92;2.60;;;22.50;52.10;;;;;;4965863;28;20991;-67
2021/10/21 09:11:04;;;;;;;4.63;2.60;;;22.50;51.90;;;;;;4966414;28;20400;-67
2021/10/21 09:13:33;;;;;;;4.93;2.33;;;22.50;51.60;;;;;;4963312;28;20419;-67
2021/10/21 09:16:01;;;;;;;4.22;2.30;;;22.50;50.90;;;;;;4965681;28;20400;-67
2021/10/21 09:18:42;;;;;;;4.45;2.40;;;22.40;50.90;;;;;;4966386;28;21127;-67
2021/10/21 09:21:08;;;;;;;4.03;2.53;;;22.40;51.70;;;;;;4966334;28;20451;-66
2021/10/21 09:23:33;;;;;;;4.38;2.47;;;22.40;51.50;;;;;;4965639;28;20419;-67
2021/10/21 09:26:07;;;;;;;3.90;2.10;;;22.40;51.40;;;;;;4965581;28;20385;-67
2021/10/21 09:28:33;;;;;;;3.47;2.30;;;22.40;51.00;;;;;;4966066;28;20404;-66
2021/10/21 09:31:04;;;;;;;3.58;2.13;;;22.40;50.50;;;;;;4948544;28;20403;-67
2021/10/21 09:33:48;;;;;;;5.43;2.30;;;22.40;50.30;;;;;;4953819;28;20491;-67
2021/10/21 09:36:21;;;;;;;3.45;2.25;;;22.40;51.00;;;;;;4947903;28;20427;-67
2021/10/21 09:39:06;;;;;;;3.88;2.03;;;22.50;50.90;;;;;;4966136;28;20467;-66
2021/10/21 09:41:34;;;;;;;4.43;2.20;;;22.50;50.70;;;;;;4965492;28;20395;-67
2021/10/21 09:44:22;;;;;;;3.05;2.00;;;22.40;50.50;;;;;;4965526;28;20408;-67
2021/10/21 09:46:48;;;;;;;2.92;1.88;;;22.40;50.00;;;;;;4965511;28;20427;-67
2021/10/21 09:49:32;;;;;;;2.90;1.92;;;22.30;50.20;;;;;;4965709;28;20411;-67
2021/10/21 09:52:01;;;;;;;3.60;2.20;;;22.40;50.70;;;;;;4947911;28;20487;-67
2021/10/21 09:54:27;;;;;;;3.33;1.93;;;22.40;50.60;;;;;;4965421;28;21027;-67
2021/10/21 09:57:01;;;;;;;2.90;1.73;;;22.40;50.30;;;;;;4965816;28;20482;-67
2021/10/21 09:59:28;;;;;;;2.15;1.70;;;22.40;50.00;;;;;;4965251;28;20397;-67
2021/10/21 10:01:57;;;;;;;2.70;1.80;;;22.40;49.70;;;;;;4965565;28;20458;-67
2021/10/21 10:04:25;;;;;;;2.42;1.83;;;22.30;50.30;;;;;;4965460;28;20422;-67
2021/10/21 10:06:58;;;;;;;3.20;2.00;;;22.30;50.20;;;;;;4965142;28;21027;-67
2021/10/21 10:09:32;;;;;;;2.63;1.67;;;22.40;50.50;;;;;;4964572;28;20396;-67
2021/10/21 10:12:02;;;;;;;2.30;1.60;;;22.40;50.20;;;;;;4964998;28;20498;-67
2021/10/21 10:14:28;;;;;;;2.95;1.70;;;22.30;49.70;;;;;;4965179;28;20947;-67
2021/10/21 10:16:54;;;;;;;3.42;1.70;;;22.30;49.50;;;;;;4965324;28;20988;-67
2021/10/21 10:19:21;;;;;;;2.40;1.70;;;22.30;49.90;;;;;;4965191;28;20580;-67
2021/10/21 10:21:51;;;;;;;2.47;1.63;;;22.30;49.90;;;;;;4965105;28;20491;-67
2021/10/21 10:24:17;;;;;;;2.25;1.58;;;22.40;50.00;;;;;;4964606;28;20831;-67
2021/10/21 10:26:46;;;;;;;2.40;1.65;;;22.40;49.80;;;;;;4965250;28;20392;-67
2021/10/21 10:29:17;;;;;;;2.88;1.60;;;22.30;49.60;;;;;;4950894;28;20400;-67
2021/10/21 10:31:44;;;;;;;3.03;1.60;;;22.30;49.60;;;;;;4965192;28;21275;-67
2021/10/21 10:34:35;;;;;;;2.30;1.50;;;22.30;49.30;;;;;;4939152;28;20434;-67
2021/10/21 10:37:14;;;;;;;3.35;1.70;;;22.30;49.90;;;;;;4954781;28;20452;-67
2021/10/21 10:39:50;;;;;;;2.90;1.60;;;22.40;49.80;;;;;;4950447;28;20427;-67
2021/10/21 10:42:42;;;;;;;2.13;1.60;;;22.30;49.60;;;;;;4946729;28;20835;-67
2021/10/21 10:45:10;;;;;;;2.13;1.40;;;22.30;49.40;;;;;;4964046;28;20424;-67
2021/10/21 10:47:54;;;;;;;2.42;1.40;;;22.30;49.40;;;;;;4946923;28;20397;-67
2021/10/21 10:50:22;;;;;;;2.20;1.50;;;22.20;49.50;;;;;;4964076;28;20404;-67
2021/10/21 10:52:54;;;;;;;1.88;1.30;;;22.20;49.80;;;;;;4954630;28;20406;-67
2021/10/21 10:55:24;;;;;;;2.78;1.33;;;22.30;49.70;;;;;;4963987;28;20400;-67
2021/10/21 10:57:58;;;;;;;2.00;1.30;;;22.30;49.40;;;;;;4964451;28;20491;-67
2021/10/21 11:00:51;;;;;;;1.80;1.20;;;22.30;49.30;;;;;;4964051;28;20893;-67
2021/10/21 11:03:31;;;;;;;1.88;1.40;;;22.20;49.00;;;;;;4964496;28;20404;-67
2021/10/21 11:06:17;;;;;;;1.92;1.13;;;22.20;49.40;;;;;;4964551;28;20524;-67
2021/10/21 11:09:06;;;;;;;1.63;1.20;;;22.20;49.60;;;;;;4963435;28;20411;-67
2021/10/21 11:11:42;;;;;;;2.03;1.20;;;22.30;49.40;;;;;;4964054;28;20396;-67
2021/10/21 11:14:12;;;;;;;1.83;1.15;;;22.20;49.00;;;;;;4963527;28;20404;-67
2021/10/21 11:16:41;;;;;;;2.03;1.20;;;22.20;49.30;;;;;;4964022;28;20408;-67
2021/10/21 11:19:07;;;;;;;1.95;1.05;;;22.20;48.90;;;;;;4964047;28;20458;-68
2021/10/21 11:21:45;;;;;;;1.90;1.10;;;22.20;49.20;;;;;;4964169;28;20394;-67
2021/10/21 11:24:10;;;;;;;1.87;1.00;;;22.30;49.20;;;;;;4963258;28;20951;-67
2021/10/21 11:26:37;;;;;;;2.45;1.15;;;22.30;48.90;;;;;;4963835;28;20392;-67
2021/10/21 11:29:03;;;;;;;2.35;1.10;;;22.30;48.70;;;;;;4963833;28;20400;-67
2021/10/21 11:31:29;;;;;;;3.85;1.20;;;22.20;48.70;;;;;;4963873;28;20398;-67
2021/10/21 11:33:57;;;;;;;4.63;1.33;;;22.20;48.70;;;;;;4964127;28;20572;-67
2021/10/21 11:36:22;;;;;;;6.97;1.40;;;22.20;49.10;;;;;;4945988;28;20411;-67
2021/10/21 11:39:07;;;;;;;5.63;1.50;;;22.30;49.00;;;;;;4963874;28;21486;-67
2021/10/21 11:41:33;;;;;;;5.10;1.20;;;22.30;49.20;;;;;;4964139;28;20415;-67
2021/10/21 11:43:58;;;;;;;6.82;1.40;;;22.30;48.80;;;;;;4963668;28;20404;-68
2021/10/21 11:46:24;;;;;;;6.15;1.23;;;22.30;49.40;;;;;;4963263;28;20424;-67
2021/10/21 11:48:55;;;;;;;4.77;1.47;;;22.30;49.00;;;;;;4946403;28;21031;-67
2021/10/21 11:51:28;;;;;;;4.75;1.30;;;22.30;50.00;;;;;;4946313;28;20397;-67
2021/10/21 11:53:56;;;;;;;8.43;1.33;;;22.40;49.50;;;;;;4963853;28;20804;-67
2021/10/21 11:56:24;;;;;;;8.07;1.23;;;22.40;49.70;;;;;;4963214;28;20463;-67
2021/10/21 11:58:50;;;;;;;5.28;1.30;;;22.40;49.10;;;;;;4963648;28;20757;-67
2021/10/21 12:01:23;;;;;;;6.20;1.33;;;22.40;48.80;;;;;;4963828;28;20382;-67
2021/10/21 12:03:49;;;;;;;7.22;1.48;;;22.30;49.00;;;;;;4946133;28;20413;-67
2021/10/21 12:06:16;;;;;;;5.57;1.13;;;22.40;50.10;;;;;;4966255;28;20880;-67
2021/10/21 12:09:08;;;;;;;3.95;1.35;;;22.50;49.90;;;;;;4967452;28;20392;-68
2021/10/21 12:11:34;;;;;;;4.72;1.20;;;22.50;49.40;;;;;;4964033;28;20404;-67
2021/10/21 12:14:02;;;;;;;5.83;1.27;;;22.50;49.10;;;;;;4949811;28;20450;-67
2021/10/21 12:16:28;;;;;;;4.40;1.17;;;22.40;48.70;;;;;;4949525;28;20497;-67
2021/10/21 12:18:54;;;;;;;6.47;1.33;;;22.40;48.70;;;;;;4967541;28;20508;-67
2021/10/21 12:21:20;;;;;;;3.83;1.27;;;22.40;49.80;;;;;;4967227;28;20380;-67
2021/10/21 12:23:54;;;;;;;4.50;1.30;;;22.50;49.90;;;;;;4967328;28;20539;-67
2021/10/21 12:26:20;;;;;;;4.13;1.27;;;22.50;49.80;;;;;;4966733;28;20392;-67
2021/10/21 12:28:47;;;;;;;4.50;1.20;;;22.50;48.80;;;;;;4967624;28;20457;-68
2021/10/21 12:31:35;;;;;;;4.93;1.23;;;22.50;48.60;;;;;;4966753;28;20396;-67
2021/10/21 12:34:10;;;;;;;4.60;1.10;;;22.40;48.80;;;;;;4966691;28;20524;-67
2021/10/21 12:36:43;;;;;;;3.00;1.10;;;22.40;49.50;;;;;;4966945;28;20478;-67
2021/10/21 12:39:11;;;;;;;5.18;1.40;;;22.50;49.70;;;;;;4949523;28;20411;-67
2021/10/21 12:41:56;;;;;;;2.80;0.90;;;22.40;49.60;;;;;;4966721;28;20487;-67
2021/10/21 12:44:35;;;;;;;3.75;1.13;;;22.40;48.80;;;;;;4966218;28;20400;-67
2021/10/21 12:47:22;;;;;;;3.22;1.00;;;22.50;48.40;;;;;;4966755;28;20412;-67
2021/10/21 12:50:11;;;;;;;3.22;1.10;;;22.40;48.80;;;;;;4966796;28;20407;-68
2021/10/21 12:52:40;;;;;;;3.75;1.08;;;22.40;49.60;;;;;;4949055;28;20412;-68